• Join FlightAware (Why Join?)
  • Login
  • US Flag 
06:54AM EDT


 

Airport Tracker/Info


-or-


 

Live Flight TrackerFlight Track Log ✈ CTL16 ✈ 01-May-2013 ✈ KHAO - KBKL

Flight Track Log - Related Links

Times and Time Zones

All times are in EDT time to prevent confusion due to time zone crossing. See the CTL16 flight status page for this flight to view local times or setup timezone preferences in your user account.

Time Position Orientation Groundspeed Altitude Reporting Facility
EDT Latitude Longitude Course Direction KTS MPH feet Rate Location/Type
08:28PM 39.3500 -84.4667 49° Northeast 110 127 1,600  Level Cincinnati TRACON
08:29PM 39.3833 -84.4167 49° Northeast 152 175 2,200 540 Climbing Cincinnati TRACON
08:29PM 39.4039 -84.4003 32° Northeast 151 174 2,500 360 Climbing Indianapolis Center
08:30PM 39.4119 -84.3869 52° Northeast 164 189 2,600 600 Climbing Indianapolis Center
08:30PM 39.4253 -84.3681 48° Northeast 157 181 3,000 360 Climbing Indianapolis Center
08:31PM 39.4403 -84.3458 49° Northeast 155 178 3,000  Level Indianapolis Center
08:31PM 39.4561 -84.3264 43° Northeast 159 183 3,000  Level Indianapolis Center
08:32PM 39.4717 -84.3011 51° Northeast 160 184 3,000  Level Indianapolis Center
08:32PM 39.4889 -84.2819 41° Northeast 165 190 3,000 -120 Level Indianapolis Center
08:33PM 39.5056 -84.2606 45° Northeast 163 188 2,900 -120 Descending Indianapolis Center
08:34PM 39.5458 -84.2183 39° Northeast 164 189 2,800 -60 Descending Indianapolis Center
08:36PM 39.6086 -84.1633 34° Northeast 139 160 2,800 60 Level Indianapolis Center
08:36PM 39.6167 -84.1528 45° Northeast 151 174 3,000 540 Climbing Indianapolis Center
08:37PM 39.6306 -84.1197 61° Northeast 145 167 3,400 540 Climbing Indianapolis Center
08:38PM 39.6317 -84.0636 89° East 152 175 4,000 540 Climbing Indianapolis Center
08:39PM 39.6350 -84.0094 85° East 150 173 4,600 420 Climbing Indianapolis Center
08:40PM 39.6450 -83.9478 78° East 161 185 5,000 420 Climbing Indianapolis Center
08:41PM 39.6742 -83.9194 37° Northeast 159 183 5,500 480 Climbing Indianapolis Center
08:42PM 39.7058 -83.8806 43° Northeast 157 181 6,000 480 Climbing Indianapolis Center
08:43PM 39.7364 -83.8400 46° Northeast 156 180 6,600 480 Climbing Indianapolis Center
08:44PM 39.7664 -83.8022 44° Northeast 153 176 7,000 120 Climbing Indianapolis Center
08:45PM 39.7986 -83.7614 44° Northeast 155 178 6,900  Descending Indianapolis Center
08:46PM 39.8339 -83.7183 43° Northeast 164 189 7,100  Climbing Indianapolis Center
08:47PM 39.8678 -83.6767 43° Northeast 166 191 7,000 -60 Descending Indianapolis Center
08:48PM 39.9006 -83.6328 46° Northeast 165 190 7,000  Level Indianapolis Center
08:49PM 39.9344 -83.5897 44° Northeast 166 191 7,000  Level Indianapolis Center
08:50PM 39.9756 -83.5414 42° Northeast 167 192 7,000  Level Indianapolis Center
08:51PM 40.0103 -83.4997 43° Northeast 167 192 7,000  Level Indianapolis Center
08:52PM 40.0456 -83.4583 42° Northeast 168 193 7,000  Level Indianapolis Center
08:53PM 40.0803 -83.4161 43° Northeast 168 193 7,000  Level Indianapolis Center
08:54PM 40.1139 -83.3733 44° Northeast 167 192 7,000  Level Indianapolis Center
08:55PM 40.1492 -83.3325 41° Northeast 168 193 7,000  Level Indianapolis Center
08:56PM 40.1833 -83.2897 44° Northeast 168 193 7,000  Level Indianapolis Center
08:57PM 40.2164 -83.2469 45° Northeast 166 191 7,000  Level Indianapolis Center
08:58PM 40.2492 -83.2047 45° Northeast 164 189 7,000  Level Indianapolis Center
08:59PM 40.2839 -83.1631 42° Northeast 166 191 7,000 -60 Level Indianapolis Center
09:00PM 40.3161 -83.1197 46° Northeast 165 190 6,900 -60 Descending Indianapolis Center
09:01PM 40.3492 -83.0772 44° Northeast 165 190 6,900  Level Indianapolis Center
09:02PM 40.3831 -83.0344 44° Northeast 166 191 6,900  Level Indianapolis Center
09:03PM 40.4172 -82.9933 42° Northeast 165 190 6,900  Level Indianapolis Center
09:04PM 40.4517 -82.9522 42° Northeast 166 191 6,900  Level Indianapolis Center
09:05PM 40.4867 -82.9117 41° Northeast 166 191 7,000  Climbing Indianapolis Center
09:06PM 40.5222 -82.8686 43° Northeast 165 190 6,900  Descending Indianapolis Center
09:08PM 40.5567 -82.8258 43° Northeast 167 192 7,000  Climbing Indianapolis Center
09:09PM 40.5894 -82.7825 45° Northeast 166 191 6,900  Descending Indianapolis Center
09:10PM 40.6233 -82.7408 43° Northeast 165 190 7,000  Climbing Indianapolis Center
09:11PM 40.6581 -82.6989 42° Northeast 167 192 6,900 -60 Descending Indianapolis Center
09:12PM 40.6928 -82.6575 42° Northeast 167 192 6,900 120 Level Indianapolis Center
09:12PM 40.7158 -82.6350 36° Northeast 167 192 7,100 60 Climbing Cleveland Center
09:13PM 40.7478 -82.5947 44° Northeast 168 193 7,000  Descending Cleveland Center
09:14PM 40.7775 -82.5628 39° Northeast 167 192 7,100 120 Climbing Cleveland Center